Waldo, Ohio
Current Conditions -  °F | °C
As of 3:53 AM on Saturday 20 Dec 2014 (Local Time) from KMNN Reporting Station
Overcast Overcast  
Wind Chill: 29°   Ceiling: 1900
Heat Index: 29°   Visibility: 8mi
Dew Point: 21°   Wind: 3mph
Humidity: 72%   Direction: 180°S
Pressure: 30.28"   Gusts: NA
Location:  40.46°N, 83.08°W
Report Text: KMNN 200853Z AUTO 18003KT 8SM OVC019 M02/M06 A3028 RMK AO2 SLP267 T10171061 53009 TSNO
Loading
Personal Weather Stations






























Interactive Weather Map New forecast layout! Learn more

10-Day Weather Forecast

Advertisements
Track Severe Weather on mobile